createdAt,value
2023-04-29T00:00:54.588Z,952.0691528
2023-04-29T00:01:56.186Z,952.0650024
2023-04-29T00:02:57.943Z,952.0656738
2023-04-29T00:03:58.827Z,952.1171875
2023-04-29T00:05:00.406Z,952.0789185
2023-04-29T00:06:01.870Z,952.0599976
2023-04-29T00:07:03.728Z,951.991394
2023-04-29T00:08:05.778Z,951.9096069
2023-04-29T00:09:06.645Z,951.9338989
2023-04-29T00:10:08.069Z,951.8891602
2023-04-29T00:11:09.600Z,951.8751831
2023-04-29T00:12:11.306Z,951.8726807
2023-04-29T00:13:12.619Z,951.8432617
2023-04-29T00:14:14.165Z,951.8217773
2023-04-29T00:15:15.584Z,951.7833862
2023-04-29T00:16:17.180Z,951.7803345
2023-04-29T00:17:18.602Z,951.7834473
2023-04-29T00:18:51.718Z,951.7727051
2023-04-29T00:19:53.519Z,951.7508545
2023-04-29T00:20:54.048Z,951.805603
2023-04-29T00:21:55.648Z,951.8128052
2023-04-29T00:22:57.129Z,951.8326416
2023-04-29T00:23:58.753Z,951.8258057
2023-04-29T00:25:00.823Z,951.8062744
2023-04-29T00:26:02.212Z,951.8152466
2023-04-29T00:27:03.683Z,951.7924805
2023-04-29T00:28:05.236Z,951.8562622
2023-04-29T00:29:06.692Z,951.8800049
2023-04-29T00:30:08.237Z,951.8406372
2023-04-29T00:31:09.780Z,951.9248657
2023-04-29T00:32:11.201Z,951.8978882
2023-04-29T00:33:12.698Z,951.9212646
2023-04-29T00:34:14.304Z,951.9662476
2023-04-29T00:35:15.728Z,951.9709473
2023-04-29T00:36:17.186Z,951.9497681
2023-04-29T00:37:18.752Z,951.9078369
2023-04-29T00:38:51.736Z,951.8613892
2023-04-29T00:39:53.390Z,951.9324951
2023-04-29T00:40:54.790Z,951.8679199
2023-04-29T00:41:56.241Z,951.895752
2023-04-29T00:42:57.707Z,951.8955688
2023-04-29T00:43:59.238Z,951.9064331
2023-04-29T00:45:00.705Z,951.8891602
2023-04-29T00:46:02.300Z,951.8742065
2023-04-29T00:47:03.042Z,951.836731
2023-04-29T00:48:05.250Z,951.8760986
2023-04-29T00:49:06.731Z,951.8048706
2023-04-29T00:50:08.188Z,951.819397
2023-04-29T00:51:09.728Z,951.8270264
2023-04-29T00:52:11.226Z,951.848999
2023-04-29T00:53:12.713Z,951.8398438
2023-04-29T00:54:14.233Z,951.8676758
2023-04-29T00:55:15.724Z,951.8850098
2023-04-29T00:56:17.257Z,951.8311157
2023-04-29T00:57:18.021Z,951.8105469
2023-04-29T00:58:51.220Z,951.821106
2023-04-29T00:59:53.079Z,951.7949829
2023-04-29T01:00:56.334Z,951.7557983
2023-04-29T01:01:55.852Z,951.7859497
2023-04-29T01:02:57.380Z,951.7809448
2023-04-29T01:03:58.329Z,951.7728271
2023-04-29T01:04:59.683Z,951.7941895
2023-04-29T01:06:01.163Z,951.7890625
2023-04-29T01:07:02.616Z,951.7890625
2023-04-29T01:08:04.751Z,951.8284302
2023-04-29T01:09:05.541Z,951.8644409
2023-04-29T01:10:07.208Z,951.8798218
2023-04-29T01:11:08.698Z,951.8227539
2023-04-29T01:12:10.262Z,951.8341675
2023-04-29T01:13:12.243Z,951.7835693
2023-04-29T01:14:13.725Z,951.7351685
2023-04-29T01:15:15.227Z,951.7121582
2023-04-29T01:16:16.751Z,951.6746826
2023-04-29T01:17:18.241Z,951.7017822
2023-04-29T01:18:20.257Z,951.6950073
2023-04-29T01:19:52.986Z,951.6974487
2023-04-29T01:20:53.497Z,951.6745605
2023-04-29T01:21:55.138Z,951.6828003
2023-04-29T01:22:56.836Z,951.7195435
2023-04-29T01:23:59.219Z,951.7162476
2023-04-29T01:25:00.724Z,951.7228394
2023-04-29T01:26:01.572Z,951.7663574
2023-04-29T01:27:03.260Z,951.7843018
2023-04-29T01:28:04.757Z,951.7597656
2023-04-29T01:29:06.235Z,951.7832031
2023-04-29T01:30:07.702Z,951.7606201
2023-04-29T01:31:09.268Z,951.7768555
2023-04-29T01:32:10.713Z,951.7784424
2023-04-29T01:33:12.255Z,951.7695313
2023-04-29T01:34:13.706Z,951.7792969
2023-04-29T01:35:15.291Z,951.7711182
2023-04-29T01:36:16.720Z,951.7401733
2023-04-29T01:37:18.112Z,951.7637329
2023-04-29T01:38:20.253Z,951.7578125
2023-04-29T01:39:52.436Z,951.717041
2023-04-29T01:40:53.630Z,951.7196655
2023-04-29T01:41:55.084Z,951.7139282
2023-04-29T01:42:56.651Z,951.7064209
2023-04-29T01:43:58.138Z,951.678772
2023-04-29T01:45:00.237Z,951.7137451
2023-04-29T01:46:01.746Z,951.7212524
2023-04-29T01:47:03.327Z,951.7112427
2023-04-29T01:48:04.758Z,951.7079468
2023-04-29T01:49:06.169Z,951.6997681
2023-04-29T01:50:07.711Z,951.6964722
2023-04-29T01:51:09.421Z,951.6590576
2023-04-29T01:52:10.741Z,951.6293945
2023-04-29T01:53:12.205Z,951.6326294
2023-04-29T01:54:13.727Z,951.5992432
2023-04-29T01:55:15.255Z,951.6237793
2023-04-29T01:56:16.762Z,951.6107788
2023-04-29T01:57:18.315Z,951.6000977
2023-04-29T01:58:50.635Z,951.5928345
2023-04-29T01:59:52.403Z,951.5928345
2023-04-29T02:00:53.700Z,951.5307007
2023-04-29T02:01:55.121Z,951.506897
2023-04-29T02:02:56.999Z,951.5117188
2023-04-29T02:03:58.850Z,951.4620361
2023-04-29T02:05:00.338Z,951.4456177
2023-04-29T02:06:01.745Z,951.4274902
2023-04-29T02:07:03.216Z,951.4603271
2023-04-29T02:08:04.821Z,951.4414063
2023-04-29T02:09:06.687Z,951.4406128
2023-04-29T02:10:08.292Z,951.4440918
2023-04-29T02:11:09.714Z,951.4506226
2023-04-29T02:12:11.286Z,951.4450073
2023-04-29T02:13:12.721Z,951.4644775
2023-04-29T02:14:14.241Z,951.4556274
2023-04-29T02:15:15.787Z,951.4987793
2023-04-29T02:16:17.229Z,951.5339355
2023-04-29T02:17:18.733Z,951.6082153
2023-04-29T02:18:51.248Z,951.5715332
2023-04-29T02:19:52.957Z,951.649231
2023-04-29T02:20:54.237Z,951.6239014
2023-04-29T02:21:55.753Z,951.6304932
2023-04-29T02:22:57.235Z,951.6262207
2023-04-29T02:23:58.071Z,951.6105957
2023-04-29T02:24:58.876Z,951.6116333
2023-04-29T02:25:59.761Z,951.6549072
2023-04-29T02:27:01.105Z,951.6588135
2023-04-29T02:28:01.953Z,951.6640015
2023-04-29T02:29:04.225Z,951.6345215
2023-04-29T02:30:05.060Z,951.6515503
2023-04-29T02:31:06.726Z,951.6975708
2023-04-29T02:32:08.255Z,951.6697388
2023-04-29T02:33:10.309Z,951.6991577
2023-04-29T02:34:11.731Z,951.6621704
2023-04-29T02:35:13.544Z,951.6556396
2023-04-29T02:36:15.258Z,951.6702881
2023-04-29T02:37:16.792Z,951.6975098
2023-04-29T02:38:18.281Z,951.6859131
2023-04-29T02:39:51.146Z,951.7058105
2023-04-29T02:40:52.206Z,951.6959229
2023-04-29T02:41:53.786Z,951.6704712
2023-04-29T02:42:54.504Z,951.6821289
2023-04-29T02:43:56.132Z,951.6721802
2023-04-29T02:44:58.311Z,951.6428833
2023-04-29T02:45:59.826Z,951.6271973
2023-04-29T02:47:01.267Z,951.649353
2023-04-29T02:48:02.791Z,951.6229858
2023-04-29T02:49:04.746Z,951.6916504
2023-04-29T02:50:06.255Z,951.6665039
2023-04-29T02:51:07.820Z,951.6420288
2023-04-29T02:52:09.342Z,951.6428223
2023-04-29T02:53:10.790Z,951.6434326
2023-04-29T02:54:12.711Z,951.6403198
2023-04-29T02:55:14.257Z,951.6629639
2023-04-29T02:56:16.279Z,951.6408691
2023-04-29T02:57:17.839Z,951.6696777
2023-04-29T02:58:50.288Z,951.6567383
2023-04-29T02:59:51.197Z,951.6923218
2023-04-29T03:00:52.672Z,951.6345215
2023-04-29T03:01:54.302Z,951.6264038
2023-04-29T03:02:56.530Z,951.6875
2023-04-29T03:03:57.559Z,951.6395264
2023-04-29T03:04:58.680Z,951.6124268
2023-04-29T03:06:00.171Z,951.5754395
2023-04-29T03:07:01.797Z,951.5535889
2023-04-29T03:08:03.364Z,951.5215454
2023-04-29T03:09:05.284Z,951.5093994
2023-04-29T03:10:06.775Z,951.4841309
2023-04-29T03:11:08.291Z,951.5036011
2023-04-29T03:12:09.834Z,951.536499
2023-04-29T03:13:11.286Z,951.5111084
2023-04-29T03:14:12.811Z,951.4854736
2023-04-29T03:15:14.287Z,951.4293823
2023-04-29T03:16:15.838Z,951.451355
2023-04-29T03:17:17.383Z,951.4187622
2023-04-29T03:18:49.795Z,951.4896851
2023-04-29T03:19:51.967Z,951.4937744
2023-04-29T03:20:52.689Z,951.5167236
2023-04-29T03:21:54.248Z,951.5249023
2023-04-29T03:22:55.887Z,951.5606079
2023-04-29T03:23:57.310Z,951.5650024
2023-04-29T03:24:58.778Z,951.5378418
2023-04-29T03:26:00.249Z,951.5273438
2023-04-29T03:27:01.746Z,951.5198364
2023-04-29T03:28:03.782Z,951.4944458
2023-04-29T03:29:05.355Z,951.4823608
2023-04-29T03:30:06.318Z,951.4911499
2023-04-29T03:31:08.281Z,951.5009155
2023-04-29T03:32:09.754Z,951.4665527
2023-04-29T03:33:11.338Z,951.4830322
2023-04-29T03:34:12.343Z,951.4699707
2023-04-29T03:35:15.885Z,951.492981
2023-04-29T03:36:15.736Z,951.5159302
2023-04-29T03:37:17.969Z,951.5036011
2023-04-29T03:38:50.375Z,951.4921265
2023-04-29T03:39:52.691Z,951.5009155
2023-04-29T03:40:54.248Z,951.4927979
2023-04-29T03:41:55.779Z,951.5206299
2023-04-29T03:42:57.321Z,951.5296631
2023-04-29T03:43:58.164Z,951.5320435
2023-04-29T03:44:59.296Z,951.5336914
2023-04-29T03:46:01.955Z,951.4911499
2023-04-29T03:47:02.758Z,951.4731445
2023-04-29T03:48:04.337Z,951.4437256
2023-04-29T03:49:06.739Z,951.4559326
2023-04-29T03:50:07.681Z,951.4281006
2023-04-29T03:51:09.249Z,951.4085693
2023-04-29T03:52:10.825Z,951.4151611
2023-04-29T03:53:12.353Z,951.3881226
2023-04-29T03:54:13.824Z,951.3571167
2023-04-29T03:55:15.769Z,951.3178711
2023-04-29T03:56:17.538Z,951.2704468
2023-04-29T03:57:50.345Z,951.2394409
2023-04-29T03:58:51.790Z,951.3129883
2023-04-29T03:59:53.565Z,951.291748
2023-04-29T04:00:54.800Z,951.3358765
2023-04-29T04:01:56.367Z,951.3300171
2023-04-29T04:02:57.933Z,951.3996582
2023-04-29T04:03:59.425Z,951.4037476
2023-04-29T04:05:00.819Z,951.3890381
2023-04-29T04:06:02.238Z,951.3742065
2023-04-29T04:07:03.751Z,951.3464355
2023-04-29T04:08:04.767Z,951.3422852
2023-04-29T04:09:06.319Z,951.3126831
2023-04-29T04:10:07.760Z,951.3301392
2023-04-29T04:11:09.270Z,951.3439331
2023-04-29T04:12:10.767Z,951.3266602
2023-04-29T04:13:12.754Z,951.3707886
2023-04-29T04:14:14.332Z,951.4050293
2023-04-29T04:15:15.772Z,951.4123535
2023-04-29T04:16:17.240Z,951.5194702
2023-04-29T04:17:49.747Z,951.5462646
2023-04-29T04:18:51.296Z,951.6262207
2023-04-29T04:19:52.969Z,951.6630249
2023-04-29T04:20:54.301Z,951.6885986
2023-04-29T04:21:55.757Z,951.7415771
2023-04-29T04:22:57.258Z,951.7226563
2023-04-29T04:23:58.796Z,951.7301025
2023-04-29T04:25:00.274Z,951.7029419
2023-04-29T04:26:01.763Z,951.7260742
2023-04-29T04:27:03.240Z,951.734314
2023-04-29T04:28:04.751Z,951.7340698
2023-04-29T04:29:06.414Z,951.7340698
2023-04-29T04:30:07.822Z,951.7168579
2023-04-29T04:31:09.866Z,951.6956787
2023-04-29T04:32:11.402Z,951.6859131
2023-04-29T04:33:12.729Z,951.6958008
2023-04-29T04:34:14.409Z,951.7145386
2023-04-29T04:35:15.825Z,951.7527466
2023-04-29T04:36:48.762Z,951.7740479
2023-04-29T04:37:50.258Z,951.7887573
2023-04-29T04:38:51.607Z,951.7888184
2023-04-29T04:39:53.639Z,951.7927856
2023-04-29T04:40:54.844Z,951.8018799
2023-04-29T04:41:56.264Z,951.7937622
2023-04-29T04:42:57.749Z,951.7904663
2023-04-29T04:43:59.248Z,951.7715454
2023-04-29T04:45:00.894Z,951.7764282
2023-04-29T04:46:02.819Z,951.7676392
2023-04-29T04:47:04.305Z,951.7611084
2023-04-29T04:48:05.848Z,951.7790527
2023-04-29T04:49:07.295Z,951.7814331
2023-04-29T04:50:08.902Z,951.8245239
2023-04-29T04:51:09.780Z,951.7993774
2023-04-29T04:52:12.299Z,951.8049927
2023-04-29T04:53:13.527Z,951.8378906
2023-04-29T04:54:15.763Z,951.8378906
2023-04-29T04:55:17.901Z,951.881958
2023-04-29T04:56:50.896Z,951.8551636
2023-04-29T04:57:52.823Z,951.8492432
2023-04-29T04:58:54.317Z,951.8272095
2023-04-29T04:59:55.740Z,951.897644
2023-04-29T05:00:57.338Z,951.8607788
2023-04-29T05:01:58.909Z,951.8704834
2023-04-29T05:03:00.984Z,951.8691406
2023-04-29T05:04:02.293Z,951.8414307
2023-04-29T05:05:03.822Z,951.8565674
2023-04-29T05:06:05.867Z,951.8584595
2023-04-29T05:07:07.318Z,951.8347168
2023-04-29T05:08:09.306Z,951.8470459
2023-04-29T05:09:10.756Z,951.8551636
2023-04-29T05:10:12.250Z,951.8495483
2023-04-29T05:11:13.876Z,951.9057617
2023-04-29T05:12:15.325Z,951.8838501
2023-04-29T05:13:16.811Z,951.8421631
2023-04-29T05:14:49.269Z,951.8790894
2023-04-29T05:15:50.842Z,951.8240356
2023-04-29T05:16:53.019Z,951.8128052
2023-04-29T05:17:54.340Z,951.8591919
2023-04-29T05:18:55.754Z,951.8699341
2023-04-29T05:19:57.305Z,951.8456421
2023-04-29T05:20:58.824Z,951.8300171
2023-04-29T05:22:00.829Z,951.8104858
2023-04-29T05:23:02.335Z,951.8045044
2023-04-29T05:24:03.854Z,951.8358765
2023-04-29T05:25:05.251Z,951.8669434
2023-04-29T05:26:06.842Z,951.84375
2023-04-29T05:27:09.004Z,951.8513794
2023-04-29T05:28:10.851Z,951.8431396
2023-04-29T05:29:12.807Z,951.888916
2023-04-29T05:30:14.259Z,951.87323
2023-04-29T05:31:15.855Z,951.8898315
2023-04-29T05:32:49.018Z,951.9018555
2023-04-29T05:33:50.332Z,951.9001465
2023-04-29T05:34:51.793Z,951.9020386
2023-04-29T05:35:53.269Z,951.9143677
2023-04-29T05:36:54.831Z,951.9509277
2023-04-29T05:37:56.416Z,951.9364624
2023-04-29T05:38:58.337Z,951.956665
2023-04-29T05:40:00.234Z,951.9353638
2023-04-29T05:41:01.782Z,951.9526367
2023-04-29T05:42:03.309Z,951.9692383
2023-04-29T05:43:04.863Z,951.9829712
2023-04-29T05:44:06.319Z,951.9880371
2023-04-29T05:45:07.760Z,951.9684448
2023-04-29T05:46:09.300Z,951.9650879
2023-04-29T05:47:10.919Z,952.0231323
2023-04-29T05:48:12.837Z,951.9838867
2023-04-29T05:49:14.258Z,951.9798584
2023-04-29T05:50:16.257Z,951.963623
2023-04-29T05:51:48.306Z,951.9578247
2023-04-29T05:52:49.799Z,951.9840698
2023-04-29T05:53:51.392Z,951.9522705
2023-04-29T05:54:52.816Z,951.9449463
2023-04-29T05:55:54.289Z,951.9621582
2023-04-29T05:56:55.863Z,951.9464722
2023-04-29T05:57:57.816Z,951.9637451
2023-04-29T05:58:59.438Z,951.9816895
2023-04-29T06:00:01.314Z,952.0218506
2023-04-29T06:01:02.818Z,952.0300903
2023-04-29T06:02:04.359Z,952.0601807
2023-04-29T06:03:06.478Z,952.0823364
2023-04-29T06:04:08.250Z,952.0700073
2023-04-29T06:05:09.704Z,952.093811
2023-04-29T06:06:10.824Z,952.0971069
2023-04-29T06:07:12.806Z,952.1271973
2023-04-29T06:08:14.300Z,952.1305542
2023-04-29T06:09:26.407Z,952.1760864
2023-04-29T06:10:49.247Z,952.1663818
2023-04-29T06:11:50.783Z,952.1589966
2023-04-29T06:12:52.339Z,952.1776733
2023-04-29T06:13:53.820Z,952.1662598
2023-04-29T06:14:55.797Z,952.1392212
2023-04-29T06:15:57.313Z,952.1303711
2023-04-29T06:16:58.843Z,952.1652832
2023-04-29T06:18:00.352Z,952.1392212
2023-04-29T06:19:01.843Z,952.1434326
2023-04-29T06:20:03.331Z,952.1564331
2023-04-29T06:21:04.742Z,952.1638794
2023-04-29T06:22:06.251Z,952.1842041
2023-04-29T06:23:07.811Z,952.1965332
2023-04-29T06:24:09.342Z,952.203064
2023-04-29T06:25:10.864Z,952.1637573
2023-04-29T06:26:12.341Z,952.1882935
2023-04-29T06:27:13.758Z,952.1934204
2023-04-29T06:28:15.310Z,952.1729736
2023-04-29T06:29:47.847Z,952.1665039
2023-04-29T06:30:49.335Z,952.2034302
2023-04-29T06:31:51.821Z,952.2039795
2023-04-29T06:32:53.363Z,952.2016602
2023-04-29T06:33:54.913Z,952.2243652
2023-04-29T06:34:56.940Z,952.237793
2023-04-29T06:35:58.947Z,952.2312012
2023-04-29T06:37:00.836Z,952.2393188
2023-04-29T06:38:01.690Z,952.22052
2023-04-29T06:39:03.237Z,952.246582
2023-04-29T06:40:04.871Z,952.2419434
2023-04-29T06:41:06.205Z,952.2485352
2023-04-29T06:42:08.312Z,952.2164307
2023-04-29T06:43:09.826Z,952.2362671
2023-04-29T06:44:11.321Z,952.2287598
2023-04-29T06:45:12.864Z,952.2214355
2023-04-29T06:46:14.804Z,952.2483521
2023-04-29T06:47:16.282Z,952.2525024
2023-04-29T06:48:48.905Z,952.2533569
2023-04-29T06:49:51.115Z,952.265686
2023-04-29T06:50:52.850Z,952.2542114
2023-04-29T06:51:54.279Z,952.2615356
2023-04-29T06:52:55.807Z,952.2762451
